createdAt,value
2022-08-25T04:26:44.664Z,19.60
2022-08-25T04:29:12.291Z,19.50
2022-08-25T04:31:40.320Z,19.30
2022-08-25T04:34:14.324Z,19.50
2022-08-25T04:36:54.547Z,19.50
2022-08-25T04:39:21.790Z,19.60
2022-08-25T04:41:49.446Z,19.50
2022-08-25T04:44:16.554Z,19.60
2022-08-25T04:46:43.724Z,19.60
2022-08-25T04:49:10.815Z,19.50
2022-08-25T04:51:40.120Z,19.80
2022-08-25T04:54:09.211Z,19.70
2022-08-25T04:56:36.373Z,19.70
2022-08-25T04:59:09.514Z,19.70
2022-08-25T05:01:36.493Z,19.70
2022-08-25T05:04:05.302Z,19.90
2022-08-25T05:06:32.657Z,19.90
2022-08-25T05:08:59.748Z,19.90
2022-08-25T05:11:26.818Z,19.90
2022-08-25T05:13:55.301Z,20.00
2022-08-25T05:16:23.499Z,20.00
2022-08-25T05:18:50.597Z,20.10
2022-08-25T05:21:22.552Z,20.10
2022-08-25T05:23:49.814Z,20.20
2022-08-25T05:26:20.473Z,20.20
2022-08-25T05:28:51.478Z,20.30
2022-08-25T05:31:18.898Z,20.20
2022-08-25T05:33:46.227Z,20.30
2022-08-25T05:36:13.824Z,20.30
2022-08-25T05:38:41.924Z,20.40
2022-08-25T05:41:10.735Z,20.40
2022-08-25T05:43:38.760Z,20.40
2022-08-25T05:46:06.117Z,20.50
2022-08-25T05:48:33.229Z,20.60
2022-08-25T05:51:01.416Z,20.60
2022-08-25T05:53:28.792Z,20.70
2022-08-25T05:55:58.694Z,20.70
2022-08-25T05:58:27.067Z,20.70
2022-08-25T06:00:54.355Z,20.80
2022-08-25T06:03:21.418Z,21.00
2022-08-25T06:05:48.584Z,21.10
2022-08-25T06:08:16.235Z,21.10
2022-08-25T06:10:43.489Z,21.10
2022-08-25T06:13:10.483Z,21.20
2022-08-25T06:15:38.909Z,21.30
2022-08-25T06:18:06.525Z,21.30
2022-08-25T06:20:33.842Z,21.40
2022-08-25T06:23:01.083Z,21.40
2022-08-25T06:25:28.206Z,21.60
2022-08-25T06:27:55.614Z,21.60
2022-08-25T06:30:28.435Z,21.70
2022-08-25T06:32:55.791Z,21.70
2022-08-25T06:35:22.966Z,21.90
2022-08-25T06:37:50.117Z,21.90
2022-08-25T06:40:17.735Z,21.90
2022-08-25T06:42:48.639Z,22.10
2022-08-25T06:45:15.756Z,22.20
2022-08-25T06:47:43.098Z,22.10
2022-08-25T06:50:12.767Z,22.20
2022-08-25T06:52:39.722Z,22.40
2022-08-25T06:55:06.984Z,22.30
2022-08-25T06:57:35.983Z,22.50
2022-08-25T07:00:06.637Z,22.40
2022-08-25T07:02:35.451Z,22.50
2022-08-25T07:05:03.035Z,22.60
2022-08-25T07:07:44.021Z,22.60
2022-08-25T07:10:11.405Z,22.60
2022-08-25T07:12:38.717Z,22.60
2022-08-25T07:15:21.460Z,22.70
2022-08-25T07:17:49.321Z,22.70
2022-08-25T07:20:19.145Z,22.80
2022-08-25T07:22:47.731Z,22.80
2022-08-25T07:25:14.762Z,23.00
2022-08-25T07:27:44.840Z,22.90
2022-08-25T07:33:04.654Z,23.10
2022-08-25T07:35:37.379Z,23.30
2022-08-25T07:38:13.555Z,23.10
2022-08-25T07:41:05.433Z,23.30
2022-08-25T07:43:33.245Z,23.40
2022-08-25T07:46:00.615Z,23.50
2022-08-25T07:51:28.010Z,23.70
2022-08-25T07:53:55.107Z,23.60
2022-08-25T07:56:22.087Z,23.70
2022-08-25T07:58:49.046Z,23.80
2022-08-25T08:01:22.063Z,23.90
2022-08-25T08:03:50.240Z,24.00
2022-08-25T08:06:21.609Z,24.00
2022-08-25T08:08:49.882Z,24.10
2022-08-25T08:11:21.125Z,24.20
2022-08-25T08:13:51.004Z,24.30
2022-08-25T08:16:19.695Z,24.20
2022-08-25T08:18:47.023Z,24.10
2022-08-25T08:21:19.228Z,24.10
2022-08-25T08:23:49.280Z,24.20
2022-08-25T08:26:17.044Z,24.30
2022-08-25T08:28:44.154Z,24.20
2022-08-25T08:31:21.541Z,24.10
2022-08-25T08:33:49.321Z,24.30
2022-08-25T08:36:17.315Z,24.20
2022-08-25T08:38:44.546Z,24.20
2022-08-25T08:42:09.389Z,24.20
2022-08-25T08:44:47.358Z,24.20
2022-08-25T08:47:39.111Z,24.40
2022-08-25T08:50:12.190Z,24.50
2022-08-25T08:53:03.673Z,24.50
2022-08-25T08:55:37.625Z,24.40
2022-08-25T08:58:20.435Z,24.60
2022-08-25T09:00:54.452Z,24.80
2022-08-25T09:03:40.966Z,25.00
2022-08-25T09:06:14.258Z,25.20
2022-08-25T09:08:44.935Z,25.20
2022-08-25T09:11:16.315Z,25.10
2022-08-25T09:14:23.374Z,25.00
2022-08-25T09:17:02.693Z,25.00
2022-08-25T09:19:42.363Z,25.10
2022-08-25T09:22:44.420Z,25.10
2022-08-25T09:25:53.366Z,25.40
2022-08-25T09:28:49.347Z,25.70
2022-08-25T09:31:32.023Z,26.20
2022-08-25T09:34:02.333Z,26.30
2022-08-25T09:36:30.706Z,26.20
2022-08-25T09:39:01.212Z,26.20
2022-08-25T09:41:42.695Z,26.20
2022-08-25T09:44:43.908Z,26.20
2022-08-25T09:47:28.112Z,26.10
2022-08-25T09:50:05.244Z,26.10
2022-08-25T09:52:32.773Z,26.10
2022-08-25T09:55:06.238Z,26.10
2022-08-25T09:57:43.104Z,26.10
2022-08-25T10:00:21.988Z,26.10
2022-08-25T10:03:06.454Z,26.20
2022-08-25T10:05:38.046Z,26.20
2022-08-25T10:08:14.607Z,26.20
2022-08-25T10:10:47.369Z,26.40
2022-08-25T10:13:22.645Z,26.80
2022-08-25T10:16:03.022Z,27.20
2022-08-25T10:18:30.383Z,27.40
2022-08-25T10:21:14.081Z,27.50
2022-08-25T10:23:52.791Z,27.30
2022-08-25T10:26:33.009Z,27.30
2022-08-25T10:29:20.532Z,27.30
2022-08-25T10:32:00.233Z,27.30
2022-08-25T10:35:12.158Z,27.20
2022-08-25T10:37:45.021Z,27.10
2022-08-25T10:40:25.842Z,27.20
2022-08-25T10:42:57.917Z,27.30
2022-08-25T10:45:44.091Z,27.10
2022-08-25T10:48:23.500Z,27.10
2022-08-25T10:51:18.873Z,26.90
2022-08-25T10:54:04.962Z,27.00
2022-08-25T10:56:37.091Z,27.00
2022-08-25T10:59:40.205Z,27.30
2022-08-25T11:02:28.962Z,27.90
2022-08-25T11:05:17.268Z,28.80
2022-08-25T11:07:54.623Z,29.30
2022-08-25T11:10:53.213Z,29.60
2022-08-25T11:13:34.427Z,29.90
2022-08-25T11:16:17.204Z,30.20
2022-08-25T11:19:04.517Z,29.90
2022-08-25T11:21:37.134Z,29.50
2022-08-25T11:24:13.693Z,29.80
2022-08-25T11:26:48.027Z,30.40
2022-08-25T11:29:18.923Z,30.80
2022-08-25T11:31:52.706Z,31.20
2022-08-25T11:34:20.624Z,31.60
2022-08-25T11:36:52.227Z,31.90
2022-08-25T11:39:34.504Z,31.30
2022-08-25T11:42:30.962Z,30.40
2022-08-25T11:45:27.051Z,29.60
2022-08-25T11:48:26.130Z,29.10
2022-08-25T11:51:03.203Z,28.80
2022-08-25T11:53:37.581Z,28.60
2022-08-25T11:56:10.286Z,28.40
2022-08-25T11:58:40.873Z,28.00
2022-08-25T12:01:40.331Z,27.40
2022-08-25T12:04:34.233Z,26.80
2022-08-25T12:07:13.808Z,26.40
2022-08-25T12:09:55.800Z,26.20
2022-08-25T12:12:45.489Z,26.10
2022-08-25T12:15:31.500Z,26.00
2022-08-25T12:18:22.128Z,26.00
2022-08-25T12:20:56.432Z,25.90
2022-08-25T12:23:30.052Z,25.90
2022-08-25T12:25:59.282Z,25.90
2022-08-25T12:28:48.624Z,26.00
2022-08-25T12:31:29.480Z,26.20
2022-08-25T12:34:12.518Z,26.00
2022-08-25T12:36:39.958Z,26.00
2022-08-25T12:39:19.525Z,25.90
2022-08-25T12:44:43.694Z,25.70
2022-08-25T12:47:27.285Z,25.70
2022-08-25T12:50:14.708Z,25.60
2022-08-25T12:52:42.951Z,25.60
2022-08-25T12:55:13.529Z,25.50
2022-08-25T12:57:46.381Z,25.50
2022-08-25T13:03:09.668Z,25.50
2022-08-25T13:06:08.188Z,25.60
2022-08-25T13:08:50.358Z,25.60
2022-08-25T13:11:32.240Z,25.70
2022-08-25T13:14:22.324Z,25.70
2022-08-25T13:16:57.265Z,25.60
2022-08-25T13:19:25.418Z,25.60
2022-08-25T13:21:54.628Z,25.60
2022-08-25T13:24:23.184Z,25.70
2022-08-25T13:27:15.470Z,25.80
2022-08-25T13:29:53.805Z,25.80
2022-08-25T13:32:47.591Z,25.90
2022-08-25T13:35:20.294Z,25.90
2022-08-25T13:37:48.069Z,25.90
2022-08-25T13:40:29.913Z,25.90
2022-08-25T13:43:03.686Z,25.80
2022-08-25T13:45:41.099Z,25.70
2022-08-25T13:48:20.773Z,25.60
2022-08-25T13:50:52.800Z,25.50
2022-08-25T13:53:25.571Z,25.60
2022-08-25T13:55:54.988Z,25.40
2022-08-25T13:58:44.892Z,25.40
2022-08-25T14:01:46.873Z,25.30
2022-08-25T14:04:32.748Z,25.30
2022-08-25T14:07:12.643Z,26.90
2022-08-25T14:09:49.046Z,25.70
2022-08-25T14:12:41.173Z,26.00
2022-08-25T14:15:34.253Z,26.30
2022-08-25T14:18:14.829Z,26.60
2022-08-25T14:20:50.881Z,26.70
2022-08-25T14:23:22.720Z,26.70
2022-08-25T14:25:50.837Z,26.60
2022-08-25T14:28:20.231Z,26.50
2022-08-25T14:31:01.793Z,26.30
2022-08-25T14:33:44.779Z,26.30
2022-08-25T14:36:18.575Z,26.20
2022-08-25T14:38:48.051Z,26.10
2022-08-25T14:41:26.942Z,26.10
2022-08-25T14:43:53.961Z,26.10
2022-08-25T14:46:25.758Z,26.10
2022-08-25T14:48:55.655Z,26.30
2022-08-25T14:51:23.771Z,26.40
2022-08-25T14:53:53.120Z,26.70
2022-08-25T14:56:20.168Z,26.80
2022-08-25T14:58:51.251Z,26.80
2022-08-25T15:01:28.536Z,26.90
2022-08-25T15:04:05.499Z,27.10
2022-08-25T15:06:34.797Z,27.30
2022-08-25T15:09:11.859Z,27.30
2022-08-25T15:11:50.823Z,27.20
2022-08-25T15:14:19.302Z,27.20
2022-08-25T15:16:57.170Z,26.80
2022-08-25T15:19:25.698Z,26.60
2022-08-25T15:21:53.052Z,26.60
2022-08-25T15:24:20.722Z,26.50
2022-08-25T15:29:20.970Z,26.50
2022-08-25T15:31:48.166Z,26.50
2022-08-25T15:34:15.701Z,26.50
2022-08-25T15:36:42.829Z,26.60
2022-08-25T15:39:09.935Z,26.70
2022-08-25T15:41:38.453Z,26.70
2022-08-25T15:44:06.491Z,26.70
2022-08-25T15:46:35.787Z,26.70
2022-08-25T15:49:02.835Z,26.60
2022-08-25T15:51:29.803Z,26.50
2022-08-25T15:53:57.903Z,26.40
2022-08-25T15:56:26.730Z,26.40
2022-08-25T15:58:54.514Z,26.30
2022-08-25T16:01:24.859Z,26.30
2022-08-25T16:03:52.380Z,26.40
2022-08-25T16:06:19.580Z,26.40
2022-08-25T16:08:46.866Z,26.30
2022-08-25T16:11:19.442Z,26.30
2022-08-25T16:13:47.861Z,26.20
2022-08-25T16:16:16.071Z,26.20
2022-08-25T16:18:44.099Z,26.20
2022-08-25T16:21:12.692Z,26.20
2022-08-25T16:23:40.270Z,26.10
2022-08-25T16:26:11.281Z,26.10
2022-08-25T16:28:40.610Z,26.00
2022-08-25T16:31:12.675Z,25.90
2022-08-25T16:33:43.340Z,25.80
2022-08-25T16:36:19.284Z,25.70
2022-08-25T16:38:49.238Z,25.70
2022-08-25T16:43:59.330Z,25.50
2022-08-25T16:46:28.675Z,25.30
2022-08-25T16:51:57.027Z,25.20
2022-08-25T16:54:46.767Z,25.40
2022-08-25T17:00:19.840Z,25.20
2022-08-25T17:02:47.870Z,25.10
2022-08-25T17:05:15.732Z,25.00
2022-08-25T17:07:42.828Z,25.00
2022-08-25T17:10:12.866Z,24.80
2022-08-25T17:12:40.641Z,25.00
2022-08-25T17:15:09.062Z,24.80
2022-08-25T17:17:37.254Z,24.70
2022-08-25T17:20:04.980Z,24.50
2022-08-25T17:22:32.372Z,24.30
2022-08-25T17:25:01.146Z,24.20
2022-08-25T17:27:29.083Z,24.10
2022-08-25T17:29:58.227Z,24.20
2022-08-25T17:32:28.872Z,23.90
2022-08-25T17:37:54.938Z,23.80
2022-08-25T17:40:22.842Z,23.60
2022-08-25T17:42:53.508Z,23.80
2022-08-25T17:45:20.588Z,23.40
2022-08-25T17:47:48.538Z,23.40
2022-08-25T17:50:15.676Z,23.30
2022-08-25T17:52:44.068Z,23.10
2022-08-25T17:55:11.995Z,23.10
2022-08-25T17:57:39.268Z,22.90
2022-08-25T18:00:10.674Z,22.70
2022-08-25T18:02:38.565Z,22.60
2022-08-25T18:05:08.460Z,22.50
2022-08-25T18:07:36.669Z,22.50
2022-08-25T18:10:05.070Z,22.30
2022-08-25T18:12:32.359Z,22.60
2022-08-25T18:14:59.554Z,22.10
2022-08-25T18:17:28.876Z,22.00
2022-08-25T18:19:56.627Z,21.90
2022-08-25T18:22:23.972Z,21.80
2022-08-25T18:24:51.688Z,21.80
2022-08-25T18:27:18.985Z,21.70
2022-08-25T18:29:49.219Z,21.70
2022-08-25T18:32:19.550Z,21.60
2022-08-25T18:34:47.151Z,21.50
2022-08-25T18:37:32.580Z,21.50
2022-08-25T18:40:19.086Z,21.60
2022-08-25T18:42:46.625Z,21.40
2022-08-25T18:45:14.063Z,21.40
2022-08-25T18:47:41.677Z,21.20
2022-08-25T18:50:09.726Z,21.20
2022-08-25T18:52:37.751Z,21.30
2022-08-25T18:55:05.730Z,21.20
2022-08-25T18:57:33.388Z,21.10
2022-08-25T19:00:01.497Z,21.00
2022-08-25T19:02:28.614Z,21.00
2022-08-25T19:04:55.821Z,21.20
2022-08-25T19:07:23.382Z,21.00
2022-08-25T19:09:50.901Z,21.10
2022-08-25T19:12:22.298Z,21.00
2022-08-25T19:14:50.070Z,21.00
2022-08-25T19:17:17.340Z,20.90
2022-08-25T19:19:44.779Z,20.90
2022-08-25T19:22:31.672Z,20.90
2022-08-25T19:24:59.665Z,20.90
2022-08-25T19:27:26.639Z,20.90
2022-08-25T19:29:53.624Z,20.80
2022-08-25T19:32:20.572Z,20.80
2022-08-25T19:34:51.448Z,20.70
2022-08-25T19:37:18.597Z,20.70
2022-08-25T19:39:52.875Z,20.60
2022-08-25T19:42:37.319Z,20.60
2022-08-25T19:45:06.896Z,20.50
2022-08-25T19:47:33.840Z,20.50
2022-08-25T19:50:00.902Z,20.50
2022-08-25T19:52:28.836Z,20.50
2022-08-25T19:54:56.198Z,20.40
2022-08-25T19:57:28.273Z,20.40
2022-08-25T20:00:15.893Z,20.40
2022-08-25T20:02:43.588Z,20.40
2022-08-25T20:05:12.422Z,20.40
2022-08-25T20:07:39.704Z,20.40
2022-08-25T20:10:09.694Z,20.50
2022-08-25T20:12:41.451Z,20.30
2022-08-25T20:15:09.441Z,20.20
2022-08-25T20:17:36.609Z,20.30
2022-08-25T20:20:10.547Z,20.20
2022-08-25T20:22:37.888Z,20.20
2022-08-25T20:25:14.194Z,20.10
2022-08-25T20:27:49.510Z,20.30
2022-08-25T20:30:22.387Z,20.30
2022-08-25T20:32:50.248Z,20.20
2022-08-25T20:35:17.405Z,20.10
2022-08-25T20:37:45.059Z,20.10
2022-08-25T20:40:19.042Z,19.90
2022-08-25T20:42:52.900Z,20.10
2022-08-25T20:45:22.017Z,20.10
2022-08-25T20:47:49.893Z,19.90
2022-08-25T20:50:18.369Z,20.00
2022-08-25T20:52:45.338Z,20.10
2022-08-25T20:55:12.559Z,19.90
2022-08-25T20:57:40.519Z,19.90
2022-08-25T21:00:09.099Z,20.10
2022-08-25T21:02:36.577Z,19.90
2022-08-25T21:05:05.607Z,19.90
2022-08-25T21:07:32.999Z,20.00
2022-08-25T21:10:05.415Z,19.80
2022-08-25T21:12:33.570Z,19.90
2022-08-25T21:15:00.581Z,19.90
2022-08-25T21:17:30.370Z,19.60
2022-08-25T21:19:57.328Z,19.80
2022-08-25T21:22:24.387Z,19.90
2022-08-25T21:24:51.868Z,19.80
2022-08-25T21:27:19.729Z,19.80
2022-08-25T21:29:54.402Z,19.70
2022-08-25T21:32:23.084Z,20.10
2022-08-25T21:34:54.206Z,19.60
2022-08-25T21:37:21.797Z,19.60
2022-08-25T21:39:49.065Z,19.60
2022-08-25T21:42:16.096Z,19.60
2022-08-25T21:44:43.534Z,19.60
2022-08-25T21:47:11.055Z,19.60
2022-08-25T21:49:38.110Z,19.50
2022-08-25T21:52:06.544Z,19.60
2022-08-25T21:54:33.698Z,19.50
2022-08-25T21:57:02.073Z,19.50
2022-08-25T21:59:35.373Z,19.50
2022-08-25T22:02:04.269Z,19.60
2022-08-25T22:04:31.591Z,19.60
2022-08-25T22:06:58.973Z,19.50
2022-08-25T22:09:26.428Z,19.60
2022-08-25T22:11:55.773Z,19.50
2022-08-25T22:14:23.873Z,19.40
2022-08-25T22:16:53.565Z,19.40
2022-08-25T22:19:23.769Z,19.40
2022-08-25T22:21:52.215Z,19.40
2022-08-25T22:24:19.644Z,19.40
2022-08-25T22:26:47.549Z,19.50
2022-08-25T22:29:23.180Z,19.40
2022-08-25T22:31:59.336Z,19.70
2022-08-25T22:34:30.451Z,19.30
2022-08-25T22:37:00.061Z,19.30
2022-08-25T22:39:27.593Z,19.30
2022-08-25T22:41:54.593Z,19.20
2022-08-25T22:44:23.377Z,19.20
2022-08-25T22:46:50.367Z,19.20
2022-08-25T22:49:17.700Z,19.30
2022-08-25T22:51:46.873Z,19.20
2022-08-25T22:54:15.320Z,19.10
2022-08-25T22:56:42.538Z,19.20
2022-08-25T22:59:11.579Z,19.20
2022-08-25T23:01:38.554Z,19.20
2022-08-25T23:04:06.961Z,19.20
2022-08-25T23:06:36.859Z,19.20
2022-08-25T23:09:05.859Z,19.10
2022-08-25T23:11:32.922Z,19.30
2022-08-25T23:14:06.814Z,19.00
2022-08-25T23:16:33.848Z,18.90
2022-08-25T23:19:02.304Z,19.00
2022-08-25T23:21:48.275Z,18.90
2022-08-25T23:24:29.252Z,18.90
2022-08-25T23:26:58.290Z,18.80
2022-08-25T23:29:25.927Z,18.80
2022-08-25T23:31:53.616Z,18.90
2022-08-25T23:34:23.272Z,18.80
2022-08-25T23:36:51.003Z,18.80
2022-08-25T23:39:18.283Z,18.80
2022-08-25T23:41:45.314Z,18.80
2022-08-25T23:44:17.154Z,18.80
2022-08-25T23:46:47.194Z,18.80
2022-08-25T23:49:18.469Z,18.70
2022-08-25T23:51:46.811Z,18.70
2022-08-25T23:54:13.898Z,18.70
2022-08-25T23:56:44.887Z,18.60
2022-08-25T23:59:19.478Z,18.80
